Terminal Aerodrome Forecast
Issued by NWS Bismarck, ND

Home | Current Version | Previous Version | Text Only | Print | Product List | Glossary Off
Versions: 1 2 3 4 5 6 7 8 9 10 11 12 13 14 15 16

852
FTUS43 KBIS 230526
TAFISN
TAF
KISN 230526Z 2306/2406 13018G28KT P6SM -SHRA VCTS OVC050CB
     FM231000 15008KT P6SM VCTS BKN100CB
     FM231200 20007KT P6SM BKN070
     FM231400 25010G17KT P6SM SCT150
     FM232000 28017G24KT P6SM FEW250
     FM240200 30011KT P6SM FEW200=

USA.gov is the U.S. government's official web portal to all federal, state and local government web resources and services.